createdAt,value
2017-12-01T00:01:50.925Z,100698.78
2017-12-01T00:04:19.283Z,100690.06
2017-12-01T00:06:48.131Z,100693.83
2017-12-01T00:09:16.459Z,100695.03
2017-12-01T00:11:44.773Z,100701.19
2017-12-01T00:14:13.880Z,100700.20
2017-12-01T00:16:43.021Z,100699.85
2017-12-01T00:19:11.340Z,100704.44
2017-12-01T00:21:39.706Z,100708.14
2017-12-01T00:24:08.081Z,100699.84
2017-12-01T00:26:36.365Z,100697.38
2017-12-01T00:29:05.069Z,100698.79
2017-12-01T00:31:34.144Z,100700.34
2017-12-01T00:34:02.481Z,100700.20
2017-12-01T00:36:30.823Z,100707.20
2017-12-01T00:38:59.914Z,100707.05
2017-12-01T00:41:28.271Z,100713.71
2017-12-01T00:43:56.617Z,100721.30
2017-12-01T00:46:24.952Z,100722.38
2017-12-01T00:48:54.033Z,100717.06
2017-12-01T00:51:22.584Z,100728.32
2017-12-01T00:53:50.906Z,100726.67
2017-12-01T00:56:20.003Z,100739.02
2017-12-01T00:58:49.168Z,100737.05
2017-12-01T01:01:17.531Z,100748.96
2017-12-01T01:03:45.864Z,100742.25
2017-12-01T01:06:15.001Z,100738.78
2017-12-01T01:08:43.347Z,100735.59
2017-12-01T01:11:11.725Z,100741.69
2017-12-01T01:13:40.445Z,100747.41
2017-12-01T01:16:08.780Z,100750.17
2017-12-01T01:18:37.870Z,100751.95
2017-12-01T01:21:06.996Z,100752.97
2017-12-01T01:23:35.304Z,100753.03
2017-12-01T01:26:03.627Z,100755.08
2017-12-01T01:28:32.014Z,100759.92
2017-12-01T01:31:00.387Z,100758.08
2017-12-01T01:33:28.721Z,100755.95
2017-12-01T01:35:57.420Z,100750.15
2017-12-01T01:38:25.735Z,100752.48
2017-12-01T01:40:54.067Z,100756.73
2017-12-01T01:43:22.757Z,100762.83
2017-12-01T01:45:51.140Z,100761.42
2017-12-01T01:48:19.489Z,100771.39
2017-12-01T01:50:47.816Z,100783.28
2017-12-01T01:53:16.161Z,100780.97
2017-12-01T01:55:44.566Z,100786.05
2017-12-01T01:58:13.105Z,100790.61
2017-12-01T02:00:41.452Z,100793.59
2017-12-01T02:03:10.541Z,100796.47
2017-12-01T02:05:38.891Z,100806.43
2017-12-01T02:08:07.233Z,100805.86
2017-12-01T02:10:35.595Z,100802.63
2017-12-01T02:13:04.726Z,100804.33
2017-12-01T02:15:33.028Z,100797.75
2017-12-01T02:18:01.386Z,100807.67
2017-12-01T02:20:29.964Z,100800.33
2017-12-01T02:22:58.268Z,100804.02
2017-12-01T02:25:26.618Z,100807.48
2017-12-01T02:27:54.952Z,100807.83
2017-12-01T02:30:23.300Z,100810.94
2017-12-01T02:32:51.659Z,100808.56
2017-12-01T02:35:20.025Z,100808.62
2017-12-01T02:37:48.362Z,100816.52
2017-12-01T02:40:16.814Z,100818.14
2017-12-01T02:42:45.980Z,100824.33
2017-12-01T02:45:14.760Z,100829.94
2017-12-01T02:47:43.081Z,100830.28
2017-12-01T02:50:11.422Z,100832.72
2017-12-01T02:52:39.793Z,100840.39
2017-12-01T02:55:08.192Z,100847.14
2017-12-01T02:57:36.519Z,100848.98
2017-12-01T03:00:04.834Z,100848.17
2017-12-01T03:02:33.145Z,100855.03
2017-12-01T03:05:01.624Z,100850.05
2017-12-01T03:07:30.043Z,100845.83
2017-12-01T03:09:58.333Z,100856.35
2017-12-01T03:12:27.456Z,100858.91
2017-12-01T03:14:56.552Z,100863.64
2017-12-01T03:17:24.884Z,100867.50
2017-12-01T03:19:53.217Z,100870.72
2017-12-01T03:22:21.536Z,100872.25
2017-12-01T03:24:49.856Z,100876.75
2017-12-01T03:27:18.416Z,100873.57
2017-12-01T03:29:46.925Z,100876.72
2017-12-01T03:32:15.255Z,100878.33
2017-12-01T03:34:43.624Z,100880.51
2017-12-01T03:37:12.094Z,100891.27
2017-12-01T03:39:40.292Z,100892.78
2017-12-01T03:42:08.634Z,100895.61
2017-12-01T03:44:36.979Z,100896.25
2017-12-01T03:47:05.290Z,100900.04
2017-12-01T03:49:33.819Z,100906.25
2017-12-01T03:52:02.196Z,100906.80
2017-12-01T03:54:30.552Z,100909.73
2017-12-01T03:56:58.907Z,100913.28
2017-12-01T03:59:27.219Z,100912.00
2017-12-01T04:01:55.534Z,100911.36
2017-12-01T04:04:23.886Z,100914.87
2017-12-01T04:06:52.236Z,100915.29
2017-12-01T04:09:20.563Z,100923.20
2017-12-01T04:11:49.006Z,100923.55
2017-12-01T04:14:17.351Z,100925.58
2017-12-01T04:16:45.672Z,100936.34
2017-12-01T04:19:14.036Z,100930.47
2017-12-01T04:21:42.360Z,100935.09
2017-12-01T04:24:10.676Z,100943.50
2017-12-01T04:26:39.043Z,100938.84
2017-12-01T04:29:07.345Z,100945.60
2017-12-01T04:31:35.695Z,100944.64
2017-12-01T04:34:04.527Z,100946.73
2017-12-01T04:36:32.852Z,100953.14
2017-12-01T04:39:01.171Z,100963.18
2017-12-01T04:41:29.519Z,100960.99
2017-12-01T04:43:57.877Z,100968.41
2017-12-01T04:46:26.972Z,100956.75
2017-12-01T04:48:56.085Z,100962.00
2017-12-01T04:51:25.200Z,100965.73
2017-12-01T04:53:53.553Z,100971.28
2017-12-01T04:56:21.997Z,100979.33
2017-12-01T04:58:50.344Z,100986.51
2017-12-01T05:01:18.701Z,100976.45
2017-12-01T05:03:47.067Z,100988.10
2017-12-01T05:06:15.374Z,100991.45
2017-12-01T05:08:43.845Z,100996.64
2017-12-01T05:11:12.194Z,100999.53
2017-12-01T05:13:40.544Z,100994.18
2017-12-01T05:16:08.870Z,101003.76
2017-12-01T05:18:37.268Z,101011.38
2017-12-01T05:21:05.575Z,100999.95
2017-12-01T05:23:33.882Z,101000.28
2017-12-01T05:26:02.286Z,101003.05
2017-12-01T05:28:30.642Z,100997.06
2017-12-01T05:30:58.944Z,101001.49
2017-12-01T05:33:27.317Z,101004.08
2017-12-01T05:35:55.649Z,101005.20
2017-12-01T05:38:23.995Z,101003.74
2017-12-01T05:40:52.473Z,101013.37
2017-12-01T05:43:20.777Z,101014.20
2017-12-01T05:45:49.109Z,101023.78
2017-12-01T05:48:17.475Z,101023.00
2017-12-01T05:50:46.566Z,101027.02
2017-12-01T05:53:15.673Z,101032.77
2017-12-01T05:55:44.790Z,101027.58
2017-12-01T05:58:13.110Z,101029.95
2017-12-01T06:00:41.406Z,101024.78
2017-12-01T06:03:09.821Z,101027.72
2017-12-01T06:05:38.130Z,101037.43
2017-12-01T06:08:06.484Z,101034.89
2017-12-01T06:10:34.847Z,101035.55
2017-12-01T06:13:03.949Z,101035.23
2017-12-01T06:15:32.296Z,101037.20
2017-12-01T06:18:00.681Z,101041.44
2017-12-01T06:20:29.027Z,101038.23
2017-12-01T06:22:57.324Z,101040.50
2017-12-01T06:25:25.839Z,101046.48
2017-12-01T06:27:54.154Z,101054.05
2017-12-01T06:30:22.539Z,101057.00
2017-12-01T06:32:50.872Z,101056.16
2017-12-01T06:35:19.234Z,101059.63
2017-12-01T06:37:47.580Z,101062.62
2017-12-01T06:40:15.949Z,101071.28
2017-12-01T06:42:44.329Z,101067.90
2017-12-01T06:45:12.823Z,101068.69
2017-12-01T06:47:41.330Z,101070.65
2017-12-01T06:50:09.689Z,101072.20
2017-12-01T06:52:38.050Z,101074.41
2017-12-01T06:55:06.391Z,101075.13
2017-12-01T06:57:34.703Z,101080.30
2017-12-01T07:00:03.047Z,101084.37
2017-12-01T07:02:31.379Z,101086.81
2017-12-01T07:04:59.702Z,101087.41
2017-12-01T07:07:28.023Z,101089.05
2017-12-01T07:09:56.846Z,101093.92
2017-12-01T07:12:25.192Z,101104.04
2017-12-01T07:14:53.600Z,101102.14
2017-12-01T07:17:21.985Z,101104.77
2017-12-01T07:19:50.303Z,101107.31
2017-12-01T07:22:18.677Z,101103.16
2017-12-01T07:24:47.029Z,101108.91
2017-12-01T07:27:15.341Z,101116.70
2017-12-01T07:29:43.666Z,101120.73
2017-12-01T07:32:12.276Z,101114.93
2017-12-01T07:34:41.346Z,101129.20
2017-12-01T07:37:09.725Z,101128.94
2017-12-01T07:39:38.104Z,101136.04
2017-12-01T07:42:06.434Z,101149.80
2017-12-01T07:47:43.151Z,101141.36
2017-12-01T07:50:11.580Z,101151.73
2017-12-01T07:52:40.660Z,101147.91
2017-12-01T07:55:09.008Z,101150.47
2017-12-01T07:57:37.392Z,101156.13
2017-12-01T08:00:06.491Z,101162.95
2017-12-01T08:02:34.823Z,101171.11
2017-12-01T08:05:03.166Z,101173.41
2017-12-01T08:07:32.885Z,101172.36
2017-12-01T08:10:01.230Z,101179.11
2017-12-01T08:12:30.144Z,101181.16
2017-12-01T08:14:58.500Z,101183.73
2017-12-01T08:17:31.033Z,101191.86
2017-12-01T08:20:00.127Z,101197.28
2017-12-01T08:22:59.245Z,101197.16
2017-12-01T08:25:32.111Z,101208.41
2017-12-01T08:28:01.728Z,101212.17
2017-12-01T08:30:30.072Z,101208.89
2017-12-01T08:32:58.472Z,101205.16
2017-12-01T08:35:26.783Z,101209.84
2017-12-01T08:37:55.175Z,101218.90
2017-12-01T08:40:23.587Z,101219.13
2017-12-01T08:42:52.072Z,101224.67
2017-12-01T08:45:20.489Z,101222.94
2017-12-01T08:47:48.812Z,101227.14
2017-12-01T08:50:17.632Z,101229.42
2017-12-01T08:52:45.991Z,101227.03
2017-12-01T08:55:14.339Z,101238.56
2017-12-01T08:57:42.676Z,101242.57
2017-12-01T09:00:11.778Z,101246.81
2017-12-01T09:02:40.120Z,101247.23
2017-12-01T09:05:08.472Z,101254.91
2017-12-01T09:07:36.903Z,101259.89
2017-12-01T09:10:06.097Z,101256.77
2017-12-01T09:12:34.817Z,101257.81
2017-12-01T09:15:03.136Z,101261.20
2017-12-01T09:17:31.449Z,101257.41
2017-12-01T09:20:00.548Z,101269.81
2017-12-01T09:22:29.621Z,101267.84
2017-12-01T09:24:57.925Z,101268.66
2017-12-01T09:27:27.053Z,101272.27
2017-12-01T09:29:55.415Z,101269.59
2017-12-01T09:32:23.759Z,101266.97
2017-12-01T09:34:52.306Z,101269.62
2017-12-01T09:37:20.712Z,101270.73
2017-12-01T09:39:49.006Z,101269.36
2017-12-01T09:42:18.137Z,101277.19
2017-12-01T09:44:46.510Z,101287.38
2017-12-01T09:47:14.828Z,101282.25
2017-12-01T09:49:43.221Z,101292.41
2017-12-01T09:52:11.564Z,101294.98
2017-12-01T09:54:39.894Z,101302.20
2017-12-01T09:57:08.316Z,101305.36
2017-12-01T09:59:36.632Z,101312.58
2017-12-01T10:02:04.981Z,101313.37
2017-12-01T10:04:33.301Z,101319.64
2017-12-01T10:07:01.636Z,101322.06
2017-12-01T10:09:29.945Z,101318.17
2017-12-01T10:11:58.291Z,101318.16
2017-12-01T10:14:26.592Z,101322.13
2017-12-01T10:16:54.942Z,101318.23
2017-12-01T10:19:23.461Z,101324.12
2017-12-01T10:21:51.798Z,101326.70
2017-12-01T10:24:20.132Z,101324.84
2017-12-01T10:26:48.494Z,101328.14
2017-12-01T10:29:16.834Z,101327.95
2017-12-01T10:31:45.139Z,101330.66
2017-12-01T10:34:13.505Z,101334.66
2017-12-01T10:36:41.825Z,101336.36
2017-12-01T10:39:10.335Z,101332.08
2017-12-01T10:41:38.929Z,101334.36
2017-12-01T10:44:07.248Z,101331.23
2017-12-01T10:46:35.556Z,101335.65
2017-12-01T10:49:04.129Z,101330.81
2017-12-01T10:51:32.436Z,101332.59
2017-12-01T10:54:00.756Z,101340.56
2017-12-01T10:56:29.138Z,101340.28
2017-12-01T10:58:57.509Z,101336.50
2017-12-01T11:01:25.890Z,101339.91
2017-12-01T11:03:54.532Z,101345.49
2017-12-01T11:06:22.880Z,101345.95
2017-12-01T11:08:51.205Z,101355.05
2017-12-01T11:11:19.570Z,101354.98
2017-12-01T11:13:48.678Z,101353.34
2017-12-01T11:16:17.740Z,101349.55
2017-12-01T11:18:46.115Z,101356.51
2017-12-01T11:21:14.455Z,101359.09
2017-12-01T11:23:42.810Z,101355.56
2017-12-01T11:26:11.221Z,101361.91
2017-12-01T11:28:39.557Z,101357.69
2017-12-01T11:31:08.646Z,101355.47
2017-12-01T11:33:37.810Z,101360.91
2017-12-01T11:36:06.138Z,101366.52
2017-12-01T11:38:34.453Z,101367.45
2017-12-01T11:41:03.601Z,101369.89
2017-12-01T11:43:32.688Z,101367.71
2017-12-01T11:46:01.797Z,101370.72
2017-12-01T11:48:30.992Z,101368.84
2017-12-01T11:50:59.506Z,101364.94
2017-12-01T11:53:27.930Z,101367.62
2017-12-01T11:55:56.298Z,101371.12
2017-12-01T11:58:25.418Z,101374.25
2017-12-01T12:00:55.307Z,101372.56
2017-12-01T12:03:24.561Z,101368.06
2017-12-01T12:05:52.911Z,101374.97
2017-12-01T12:08:22.020Z,101373.22
2017-12-01T12:10:50.698Z,101380.23
2017-12-01T12:13:19.831Z,101381.98
2017-12-01T12:15:48.161Z,101388.11
2017-12-01T12:18:16.519Z,101394.59
2017-12-01T12:20:44.868Z,101396.32
2017-12-01T12:23:13.479Z,101398.75
2017-12-01T12:25:41.791Z,101394.58
2017-12-01T12:28:10.910Z,101399.98
2017-12-01T12:30:39.258Z,101404.19
2017-12-01T12:33:08.177Z,101404.58
2017-12-01T12:35:36.563Z,101406.42
2017-12-01T12:38:04.879Z,101411.69
2017-12-01T12:40:33.265Z,101410.56
2017-12-01T12:43:01.614Z,101418.30
2017-12-01T12:45:29.973Z,101414.59
2017-12-01T12:47:58.321Z,101422.95
2017-12-01T12:50:27.416Z,101417.20
2017-12-01T12:52:55.779Z,101423.76
2017-12-01T12:55:24.303Z,101418.03
2017-12-01T12:57:53.397Z,101427.15
2017-12-01T13:00:21.715Z,101422.91
2017-12-01T13:02:50.100Z,101423.16
2017-12-01T13:05:18.460Z,101434.43
2017-12-01T13:07:46.803Z,101426.81
2017-12-01T13:10:15.957Z,101426.39
2017-12-01T13:12:44.281Z,101431.19
2017-12-01T13:15:12.608Z,101429.97
2017-12-01T13:17:41.784Z,101437.13
2017-12-01T13:20:10.136Z,101440.37
2017-12-01T13:22:39.434Z,101433.32
2017-12-01T13:25:07.821Z,101441.91
2017-12-01T13:27:36.323Z,101442.20
2017-12-01T13:30:04.683Z,101450.62
2017-12-01T13:32:33.783Z,101447.96
2017-12-01T13:35:02.177Z,101457.22
2017-12-01T13:37:30.522Z,101456.44
2017-12-01T13:39:59.009Z,101457.20
2017-12-01T13:42:27.353Z,101455.92
2017-12-01T13:44:55.764Z,101464.95
2017-12-01T13:47:24.162Z,101466.53
2017-12-01T13:49:52.536Z,101473.77
2017-12-01T13:52:20.896Z,101474.16
2017-12-01T13:54:49.279Z,101485.17
2017-12-01T13:57:17.657Z,101487.59
2017-12-01T13:59:46.766Z,101488.75
2017-12-01T14:02:16.009Z,101489.09
2017-12-01T14:04:45.146Z,101492.06
2017-12-01T14:07:14.284Z,101494.59
2017-12-01T14:09:42.668Z,101497.06
2017-12-01T14:12:11.030Z,101503.48
2017-12-01T14:14:39.429Z,101506.27
2017-12-01T14:17:07.871Z,101509.73
2017-12-01T14:19:36.198Z,101516.86
2017-12-01T14:22:04.531Z,101526.00
2017-12-01T14:24:33.870Z,101525.02
2017-12-01T14:27:02.254Z,101522.06
2017-12-01T14:29:30.572Z,101528.20
2017-12-01T14:31:58.950Z,101534.24
2017-12-01T14:34:27.274Z,101530.58
2017-12-01T14:36:55.599Z,101537.13
2017-12-01T14:39:23.972Z,101532.84
2017-12-01T14:41:52.311Z,101540.20
2017-12-01T14:44:20.628Z,101535.25
2017-12-01T14:46:49.213Z,101542.42
2017-12-01T14:49:17.557Z,101542.48
2017-12-01T14:51:45.899Z,101547.47
2017-12-01T14:54:15.025Z,101552.89
2017-12-01T14:56:43.413Z,101559.61
2017-12-01T14:59:11.791Z,101558.05
2017-12-01T15:01:40.172Z,101568.98
2017-12-01T15:04:08.509Z,101565.69
2017-12-01T15:06:37.687Z,101563.58
2017-12-01T15:09:06.225Z,101571.88
2017-12-01T15:11:34.608Z,101570.27
2017-12-01T15:14:02.952Z,101574.91
2017-12-01T15:16:31.356Z,101583.51
2017-12-01T15:18:59.700Z,101587.19
2017-12-01T15:21:28.008Z,101588.47
2017-12-01T15:23:56.432Z,101593.80
2017-12-01T15:26:24.729Z,101601.38
2017-12-01T15:28:53.045Z,101604.74
2017-12-01T15:31:21.747Z,101608.56
2017-12-01T15:33:50.112Z,101613.65
2017-12-01T15:36:18.428Z,101615.54
2017-12-01T15:38:46.771Z,101618.67
2017-12-01T15:41:15.117Z,101619.65
2017-12-01T15:43:44.242Z,101622.03
2017-12-01T15:46:13.405Z,101621.18
2017-12-01T15:48:41.756Z,101623.63
2017-12-01T15:51:10.089Z,101621.80
2017-12-01T15:53:38.812Z,101634.91
2017-12-01T15:56:07.156Z,101633.43
2017-12-01T15:58:36.263Z,101629.27
2017-12-01T16:01:04.793Z,101630.48
2017-12-01T16:03:33.173Z,101635.88
2017-12-01T16:06:01.496Z,101645.02
2017-12-01T16:08:29.866Z,101647.70
2017-12-01T16:10:58.967Z,101648.62
2017-12-01T16:13:28.068Z,101648.08
2017-12-01T16:15:56.813Z,101654.37
2017-12-01T16:18:25.167Z,101652.17
2017-12-01T16:20:53.512Z,101652.55
2017-12-01T16:23:22.628Z,101656.15
2017-12-01T16:25:50.943Z,101657.25
2017-12-01T16:28:19.349Z,101662.62
2017-12-01T16:30:48.454Z,101663.73
2017-12-01T16:33:17.590Z,101661.73
2017-12-01T16:35:45.898Z,101668.22
2017-12-01T16:38:14.632Z,101675.45
2017-12-01T16:40:42.984Z,101680.66
2017-12-01T16:43:12.087Z,101683.84
2017-12-01T16:45:41.232Z,101682.62
2017-12-01T16:48:09.583Z,101686.92
2017-12-01T16:50:37.947Z,101691.94
2017-12-01T16:53:07.056Z,101694.70
2017-12-01T16:55:35.349Z,101701.84
2017-12-01T16:58:03.655Z,101701.08
2017-12-01T17:00:32.076Z,101703.34
2017-12-01T17:03:01.209Z,101699.91
2017-12-01T17:05:29.546Z,101698.19
2017-12-01T17:07:58.691Z,101706.47
2017-12-01T17:10:27.103Z,101710.63
2017-12-01T17:12:55.444Z,101717.06
2017-12-01T17:15:23.843Z,101717.80
2017-12-01T17:17:52.197Z,101712.71
2017-12-01T17:20:20.613Z,101714.13
2017-12-01T17:22:49.355Z,101729.63
2017-12-01T17:25:17.707Z,101737.10
2017-12-01T17:27:46.796Z,101728.88
2017-12-01T17:30:15.137Z,101738.33
2017-12-01T17:32:43.503Z,101736.67
2017-12-01T17:35:12.661Z,101747.77
2017-12-01T17:37:41.867Z,101751.80
2017-12-01T17:40:10.971Z,101760.39
2017-12-01T17:42:39.342Z,101764.01
2017-12-01T17:45:08.521Z,101761.74
2017-12-01T17:47:36.837Z,101767.01
2017-12-01T17:50:05.238Z,101768.95
2017-12-01T17:52:33.662Z,101772.63
2017-12-01T17:55:02.778Z,101772.94
2017-12-01T17:57:31.876Z,101779.08
2017-12-01T18:00:00.224Z,101778.70
2017-12-01T18:02:28.602Z,101782.08
2017-12-01T18:04:57.734Z,101785.98
2017-12-01T18:07:26.534Z,101786.79
2017-12-01T18:09:54.868Z,101786.20
2017-12-01T18:12:23.211Z,101790.73
2017-12-01T18:14:51.625Z,101794.72
2017-12-01T18:17:19.950Z,101796.53
2017-12-01T18:19:48.296Z,101789.45
2017-12-01T18:22:17.414Z,101801.49
2017-12-01T18:24:45.738Z,101808.70
2017-12-01T18:27:14.070Z,101812.91
2017-12-01T18:29:42.578Z,101815.12
2017-12-01T18:32:10.931Z,101818.94
2017-12-01T18:34:39.269Z,101817.33
2017-12-01T18:37:07.889Z,101815.58
2017-12-01T18:39:36.297Z,101816.16
2017-12-01T18:42:04.697Z,101818.22
2017-12-01T18:44:33.112Z,101823.69
2017-12-01T18:47:01.436Z,101830.04
2017-12-01T18:49:29.914Z,101830.16
2017-12-01T18:51:58.384Z,101832.08
2017-12-01T18:54:26.795Z,101838.12
2017-12-01T18:56:55.119Z,101850.28
2017-12-01T18:59:24.244Z,101851.09
2017-12-01T19:01:52.593Z,101854.79
2017-12-01T19:04:21.734Z,101860.91
2017-12-01T19:06:50.099Z,101860.87
2017-12-01T19:09:18.456Z,101857.00
2017-12-01T19:11:47.570Z,101861.55
2017-12-01T19:14:16.333Z,101860.80
2017-12-01T19:16:45.428Z,101860.41
2017-12-01T19:19:13.868Z,101863.10
2017-12-01T19:21:42.254Z,101864.81
2017-12-01T19:24:10.582Z,101863.98
2017-12-01T19:26:39.683Z,101872.97
2017-12-01T19:29:08.781Z,101866.20
2017-12-01T19:31:37.111Z,101870.95
2017-12-01T19:34:05.476Z,101867.89
2017-12-01T19:36:33.913Z,101869.34
2017-12-01T19:39:02.231Z,101867.23
2017-12-01T19:41:30.607Z,101870.30
2017-12-01T19:43:59.047Z,101878.52
2017-12-01T19:48:54.655Z,101893.41
2017-12-01T19:51:23.003Z,101891.13
2017-12-01T19:53:51.341Z,101899.41
2017-12-01T19:56:19.748Z,101903.06
2017-12-01T19:58:48.422Z,101905.21
2017-12-01T20:01:16.789Z,101908.41
2017-12-01T20:03:45.155Z,101909.88
2017-12-01T20:06:14.293Z,101914.31
2017-12-01T20:08:42.604Z,101905.36
2017-12-01T20:11:10.923Z,101918.09
2017-12-01T20:13:39.293Z,101910.59
2017-12-01T20:16:23.269Z,101921.77
2017-12-01T20:18:51.700Z,101913.09
2017-12-01T20:21:20.787Z,101916.36
2017-12-01T20:23:49.120Z,101918.16
2017-12-01T20:26:17.509Z,101923.12
2017-12-01T20:28:45.854Z,101924.70
2017-12-01T20:31:14.183Z,101927.13
2017-12-01T20:33:42.558Z,101937.14
2017-12-01T20:36:10.908Z,101937.45
2017-12-01T20:38:39.238Z,101945.42
2017-12-01T20:41:07.769Z,101942.73
2017-12-01T20:43:36.075Z,101945.14
2017-12-01T20:46:04.369Z,101943.59
2017-12-01T20:48:32.731Z,101949.66
2017-12-01T20:51:01.148Z,101949.63
2017-12-01T20:53:30.217Z,101956.31
2017-12-01T20:55:58.554Z,101966.87
2017-12-01T20:58:26.881Z,101969.08
2017-12-01T21:00:55.239Z,101975.02
2017-12-01T21:03:23.823Z,101981.73
2017-12-01T21:05:52.508Z,101973.77
2017-12-01T21:08:20.876Z,101975.40
2017-12-01T21:10:49.232Z,101975.64
2017-12-01T21:13:17.552Z,101979.77
2017-12-01T21:15:45.907Z,101972.77
2017-12-01T21:18:14.314Z,101982.73
2017-12-01T21:20:42.606Z,101984.46
2017-12-01T21:23:10.925Z,101980.48
2017-12-01T21:25:39.344Z,101980.58
2017-12-01T21:28:07.648Z,101985.84
2017-12-01T21:30:35.991Z,101989.54
2017-12-01T21:33:04.401Z,101995.38
2017-12-01T21:35:32.705Z,101993.61
2017-12-01T21:38:01.058Z,101998.53
2017-12-01T21:40:29.408Z,102005.23
2017-12-01T21:42:57.748Z,102011.98
2017-12-01T21:45:26.855Z,102012.12
2017-12-01T21:47:55.287Z,102009.50
2017-12-01T21:50:23.616Z,102016.97
2017-12-01T21:52:51.972Z,102020.34
2017-12-01T21:55:21.163Z,102019.95
2017-12-01T21:57:49.476Z,102017.50
2017-12-01T22:00:17.837Z,102025.86
2017-12-01T22:02:46.214Z,102030.85
2017-12-01T22:05:14.545Z,102031.88
2017-12-01T22:07:42.899Z,102019.83
2017-12-01T22:10:11.523Z,102025.95
2017-12-01T22:12:39.817Z,102025.49
2017-12-01T22:15:08.941Z,102034.22
2017-12-01T22:17:37.340Z,102034.41
2017-12-01T22:20:05.650Z,102028.95
2017-12-01T22:22:33.962Z,102043.33
2017-12-01T22:25:03.113Z,102044.84
2017-12-01T22:27:31.458Z,102047.00
2017-12-01T22:29:59.810Z,102048.27
2017-12-01T22:32:29.025Z,102051.23
2017-12-01T22:34:57.345Z,102049.19
2017-12-01T22:37:25.701Z,102059.98
2017-12-01T22:39:54.024Z,102059.37
2017-12-01T22:42:22.342Z,102055.05
2017-12-01T22:44:50.641Z,102052.59
2017-12-01T22:47:18.992Z,102055.39
2017-12-01T22:49:47.358Z,102057.87
2017-12-01T22:54:49.198Z,102052.23
2017-12-01T22:57:17.487Z,102058.71
2017-12-01T22:59:45.834Z,102060.23
2017-12-01T23:02:14.209Z,102068.41
2017-12-01T23:04:42.517Z,102061.84
2017-12-01T23:07:10.871Z,102062.46
2017-12-01T23:09:39.220Z,102069.89
2017-12-01T23:12:07.558Z,102069.25
2017-12-01T23:14:35.868Z,102071.48
2017-12-01T23:17:04.451Z,102074.30
2017-12-01T23:19:33.562Z,102061.59
2017-12-01T23:22:01.896Z,102065.33
2017-12-01T23:24:30.240Z,102065.06
2017-12-01T23:26:58.588Z,102067.25
2017-12-01T23:29:27.681Z,102070.18
2017-12-01T23:31:56.801Z,102068.59
2017-12-01T23:36:58.772Z,102078.55
2017-12-01T23:39:27.194Z,102081.67
2017-12-01T23:41:55.504Z,102076.69
2017-12-01T23:44:23.864Z,102081.84
2017-12-01T23:46:52.162Z,102083.36
2017-12-01T23:49:21.263Z,102088.25
2017-12-01T23:51:50.417Z,102088.84
2017-12-01T23:54:19.591Z,102088.16
2017-12-01T23:56:47.969Z,102083.30
2017-12-01T23:59:16.360Z,102084.70
